»·PEaware :: N275ND KLAX-KSNA

N275ND :: KLAX-KSNA

FLIGHT INFORMATION

Flight Status: Arrived
Operator: Privately registered:
United States
More flights under this callsign
Pilot: John A. (19135)
Aircraft: CESSNA 172 SKYHAWK
(C172)
More flights by this aircraft type
Origin: KLAX Los Angeles Intl
United States
Destination: KSNA John Wayne-Orange Co
United States
More flights between these airports :: More routes between these airports
Route: +SLI8 SLI
File this flight plan on PilotEdge
Remarks: I-6 Rating
Altitude:
(Current/Filed)
4,000ft
Speed:
(Current/Filed)
125kts
Departed: 19-Aug-19 09:53 AM
Arrived: 19-Aug-19 10:34 AM
Distance/Time
Traveled:
31nm/0:40
Distance/Time
To Go:
Arrived

Flight Plot

Page will automatically refresh every two minutes.

Flight plan parsing failed; only flown route is shown


Map Options




Map Legend


Flown Route
Filed Route
Departure Airport
Arrival Airport
Navaid (VOR, NDB)
Fix

Horizontal Profiles

Position Reports

Time Latitude Longitude Heading Altitude Ground
Speed
19-Aug-19 09:03 33.933667 -118.399069 174 110ft 0kts
19-Aug-19 09:03 33.933667 -118.399069 174 110ft 0kts
19-Aug-19 09:05 33.933667 -118.399069 174 110ft 0kts
19-Aug-19 09:06 33.933667 -118.399069 174 110ft 0kts
19-Aug-19 09:07 33.933667 -118.399069 173 110ft 0kts
19-Aug-19 09:08 33.933667 -118.399069 173 110ft 0kts
19-Aug-19 09:08 33.933667 -118.399069 173 110ft 0kts
19-Aug-19 09:10 33.933667 -118.399069 173 110ft 0kts
19-Aug-19 09:14 33.933667 -118.399069 174 110ft 0kts
19-Aug-19 09:15 33.933667 -118.399069 174 110ft 0kts
19-Aug-19 09:16 33.933667 -118.399069 174 110ft 0kts
19-Aug-19 09:17 33.933667 -118.399069 174 110ft 0kts
19-Aug-19 09:18 33.933667 -118.399069 174 110ft 0kts
19-Aug-19 09:19 33.933660 -118.399010 29 110ft 0kts
19-Aug-19 09:20 33.934656 -118.397663 90 108ft 20kts
19-Aug-19 09:21 33.935720 -118.390606 76 102ft 0kts
19-Aug-19 09:22 33.936914 -118.382784 345 96ft 1kts
19-Aug-19 09:23 33.934962 -118.385990 269 99ft 0kts
19-Aug-19 09:24 33.934962 -118.385990 269 99ft 0kts
19-Aug-19 09:25 33.934227 -118.387931 345 99ft 0kts
19-Aug-19 09:26 33.934227 -118.387931 345 99ft 0kts
19-Aug-19 09:27 33.934153 -118.395511 336 106ft 0kts
19-Aug-19 09:28 33.934153 -118.395511 336 106ft 0kts
19-Aug-19 09:29 33.934153 -118.395511 336 106ft 0kts
19-Aug-19 09:30 33.934153 -118.395511 336 106ft 0kts
19-Aug-19 09:31 33.934153 -118.395511 336 106ft 0kts
19-Aug-19 09:32 33.934153 -118.395511 336 106ft 0kts
19-Aug-19 09:33 33.934153 -118.395511 336 106ft 0kts
19-Aug-19 09:34 33.934153 -118.395511 336 106ft 0kts
19-Aug-19 09:35 33.934153 -118.395511 336 106ft 0kts
19-Aug-19 09:36 33.935230 -118.392227 82 102ft 24kts
19-Aug-19 09:37 33.935475 -118.390510 35 102ft 0kts
19-Aug-19 09:38 33.935936 -118.384717 83 99ft 20kts
19-Aug-19 09:39 33.936679 -118.382815 352 96ft 5kts
19-Aug-19 09:40 33.936514 -118.382892 12 96ft 0kts
19-Aug-19 09:41 33.936542 -118.382840 95 96ft 4kts
19-Aug-19 09:42 33.934962 -118.385992 269 99ft 0kts
19-Aug-19 09:43 33.935029 -118.385947 154 99ft 7kts
19-Aug-19 09:44 33.935029 -118.385947 154 99ft 7kts
19-Aug-19 09:45 33.934996 -118.385944 229 100ft 0kts
19-Aug-19 09:46 33.934997 -118.386025 4 99ft 5kts
19-Aug-19 09:47 33.935194 -118.385952 82 99ft 12kts
19-Aug-19 09:48 33.935194 -118.385952 82 99ft 12kts
19-Aug-19 09:49 33.935171 -118.386103 346 99ft 6kts
19-Aug-19 09:50 33.936385 -118.382928 25 96ft 0kts
19-Aug-19 09:51 33.937252 -118.383135 308 96ft 8kts
19-Aug-19 09:52 33.936172 -118.394090 263 220ft 89kts
19-Aug-19 09:53 33.931405 -118.424884 252 1111ft 94kts
19-Aug-19 09:54 33.915107 -118.449170 215 1944ft 97kts
19-Aug-19 09:55 33.891611 -118.464624 217 2702ft 101kts
19-Aug-19 09:56 33.868988 -118.481827 174 3413ft 104kts
19-Aug-19 09:57 33.845318 -118.462871 149 3940ft 114kts
19-Aug-19 09:58 33.820931 -118.439859 149 4020ft 112kts
19-Aug-19 09:59 33.795144 -118.416434 138 4013ft 116kts
19-Aug-19 10:00 33.769871 -118.391476 146 3933ft 120kts
19-Aug-19 10:01 33.743881 -118.366473 140 3988ft 116kts
19-Aug-19 10:02 33.723444 -118.337126 82 3915ft 115kts
19-Aug-19 10:03 33.732317 -118.300653 72 3986ft 115kts
19-Aug-19 10:04 33.744383 -118.263530 65 3976ft 124kts
19-Aug-19 10:05 33.753486 -118.222979 80 3895ft 126kts
19-Aug-19 10:06 33.761778 -118.183096 80 3986ft 119kts
19-Aug-19 10:07 33.767072 -118.142928 84 4032ft 121kts
19-Aug-19 10:08 33.773649 -118.102048 80 3942ft 128kts
19-Aug-19 10:09 33.779679 -118.060618 71 3898ft 126kts
19-Aug-19 10:10 33.794490 -118.023256 68 3955ft 122kts
19-Aug-19 10:11 33.809708 -117.986375 63 3970ft 123kts
19-Aug-19 10:12 33.825525 -117.949792 64 3998ft 123kts
19-Aug-19 10:13 33.838909 -117.911968 64 3860ft 121kts
19-Aug-19 10:14 33.853052 -117.874608 64 3564ft 124kts
19-Aug-19 10:15 33.866876 -117.835459 66 3545ft 127kts
19-Aug-19 10:16 33.884465 -117.798652 62 3582ft 127kts
19-Aug-19 10:17 33.898011 -117.762804 68 3559ft 108kts
19-Aug-19 10:18 33.910353 -117.730892 67 3552ft 106kts
19-Aug-19 10:19 33.930496 -117.706397 26 3585ft 112kts
19-Aug-19 10:20 33.959403 -117.695711 336 3538ft 115kts
19-Aug-19 10:21 33.948278 -117.716542 186 3457ft 112kts
19-Aug-19 10:22 33.918173 -117.714373 194 3502ft 109kts
19-Aug-19 10:23 33.892851 -117.730789 208 3416ft 100kts
19-Aug-19 10:24 33.869066 -117.746307 207 3401ft 98kts
19-Aug-19 10:25 33.845147 -117.761768 206 3292ft 104kts
19-Aug-19 10:26 33.819502 -117.778987 208 2853ft 104kts
19-Aug-19 10:27 33.795286 -117.792423 206 2617ft 85kts
19-Aug-19 10:28 33.774580 -117.806053 207 2241ft 86kts
19-Aug-19 10:29 33.752796 -117.820329 207 1750ft 91kts
19-Aug-19 10:30 33.730172 -117.835087 208 1110ft 92kts
19-Aug-19 10:31 33.711123 -117.846885 208 751ft 74kts
19-Aug-19 10:32 33.691989 -117.858621 204 359ft 78kts
19-Aug-19 10:33 33.678079 -117.867281 210 60ft 0kts
19-Aug-19 10:34 33.677260 -117.866521 122 60ft 0kts
19-Aug-19 10:35 33.673757 -117.866683 206 60ft 26kts
19-Aug-19 10:36 33.669257 -117.870090 208 60ft 0kts
19-Aug-19 10:37 33.669257 -117.870090 208 60ft 0kts

Navigation Log

Ident Type
Flight plan parsing failed, navigation log unavailable